Claremont, California
Current Conditions -  °F | °C
As of 4:53 AM on Thursday 23 Oct 2014 (Local Time) from KONT Reporting Station
Clear Clear  
Wind Chill: 63°   Ceiling: Unl
Heat Index: 63°   Visibility: 10mi
Dew Point: 45°   Wind: 0mph
Humidity: 52%   Direction: NA
Pressure: 29.95"   Gusts: NA
Location:  34.1°N, 117.71°W
Report Text: KONT 231153Z 00000KT 10SM CLR 17/07 A2995 RMK AO2 SLP128 T01720072 10206 20167 55008
Loading
Personal Weather Stations






























Interactive Weather Map
Tropical Storm Tracking
New forecast layout! Learn more

10-Day Weather Forecast

Advertisements
Track Severe Weather on mobile